sensor_id;sensor_type;location;lat;lon;timestamp;P1;durP1;ratioP1;P2;durP2;ratioP2
48002;SDS011;33768;48.578;11.574;2022-12-10T00:01:31;25.93;;;15.17;;
48002;SDS011;33768;48.578;11.574;2022-12-10T00:04:28;27.00;;;15.97;;
48002;SDS011;33768;48.578;11.574;2022-12-10T00:07:32;27.70;;;16.27;;
48002;SDS011;33768;48.578;11.574;2022-12-10T00:10:40;28.90;;;17.63;;
48002;SDS011;33768;48.578;11.574;2022-12-10T00:13:44;27.60;;;16.30;;
48002;SDS011;33768;48.578;11.574;2022-12-10T00:16:49;27.40;;;16.50;;
48002;SDS011;33768;48.578;11.574;2022-12-10T00:19:53;30.63;;;17.10;;
48002;SDS011;33768;48.578;11.574;2022-12-10T00:22:58;24.57;;;15.83;;
48002;SDS011;33768;48.578;11.574;2022-12-10T00:26:03;26.17;;;16.17;;
48002;SDS011;33768;48.578;11.574;2022-12-10T00:29:10;28.03;;;15.70;;
48002;SDS011;33768;48.578;11.574;2022-12-10T00:32:16;25.13;;;14.93;;
48002;SDS011;33768;48.578;11.574;2022-12-10T00:35:20;26.87;;;15.57;;
48002;SDS011;33768;48.578;11.574;2022-12-10T00:38:24;26.63;;;16.10;;
48002;SDS011;33768;48.578;11.574;2022-12-10T00:41:36;23.47;;;14.93;;
48002;SDS011;33768;48.578;11.574;2022-12-10T00:44:40;26.90;;;15.63;;
48002;SDS011;33768;48.578;11.574;2022-12-10T00:47:44;26.93;;;16.03;;
48002;SDS011;33768;48.578;11.574;2022-12-10T00:50:58;25.57;;;15.13;;
48002;SDS011;33768;48.578;11.574;2022-12-10T00:54:04;26.80;;;15.43;;
48002;SDS011;33768;48.578;11.574;2022-12-10T00:57:09;25.57;;;15.30;;
48002;SDS011;33768;48.578;11.574;2022-12-10T01:00:13;27.20;;;15.63;;
48002;SDS011;33768;48.578;11.574;2022-12-10T01:03:18;26.83;;;15.93;;
48002;SDS011;33768;48.578;11.574;2022-12-10T01:06:26;24.87;;;15.57;;
48002;SDS011;33768;48.578;11.574;2022-12-10T01:09:32;29.27;;;16.23;;
48002;SDS011;33768;48.578;11.574;2022-12-10T01:12:36;24.77;;;14.83;;
48002;SDS011;33768;48.578;11.574;2022-12-10T01:15:40;24.40;;;14.87;;
48002;SDS011;33768;48.578;11.574;2022-12-10T01:18:44;24.93;;;14.87;;
48002;SDS011;33768;48.578;11.574;2022-12-10T01:21:50;26.07;;;15.60;;
48002;SDS011;33768;48.578;11.574;2022-12-10T01:24:57;27.43;;;16.13;;
48002;SDS011;33768;48.578;11.574;2022-12-10T01:28:01;22.10;;;14.60;;
48002;SDS011;33768;48.578;11.574;2022-12-10T01:31:08;25.63;;;15.07;;
48002;SDS011;33768;48.578;11.574;2022-12-10T01:34:14;25.90;;;16.07;;
48002;SDS011;33768;48.578;11.574;2022-12-10T01:37:18;25.87;;;16.10;;
48002;SDS011;33768;48.578;11.574;2022-12-10T01:40:22;23.70;;;15.47;;
48002;SDS011;33768;48.578;11.574;2022-12-10T01:43:27;23.67;;;14.50;;
48002;SDS011;33768;48.578;11.574;2022-12-10T01:46:32;26.67;;;15.63;;
48002;SDS011;33768;48.578;11.574;2022-12-10T01:49:40;23.97;;;15.70;;
48002;SDS011;33768;48.578;11.574;2022-12-10T01:52:44;29.10;;;17.37;;
48002;SDS011;33768;48.578;11.574;2022-12-10T01:55:49;24.93;;;15.07;;
48002;SDS011;33768;48.578;11.574;2022-12-10T01:58:55;26.73;;;15.47;;
48002;SDS011;33768;48.578;11.574;2022-12-10T02:05:42;26.30;;;15.93;;
48002;SDS011;33768;48.578;11.574;2022-12-10T02:09:18;27.27;;;16.03;;
48002;SDS011;33768;48.578;11.574;2022-12-10T02:12:38;24.17;;;15.53;;
48002;SDS011;33768;48.578;11.574;2022-12-10T02:15:51;27.13;;;16.37;;
48002;SDS011;33768;48.578;11.574;2022-12-10T02:22:19;27.33;;;17.00;;
48002;SDS011;33768;48.578;11.574;2022-12-10T02:25:30;27.03;;;15.87;;
48002;SDS011;33768;48.578;11.574;2022-12-10T02:32:23;26.87;;;16.50;;
48002;SDS011;33768;48.578;11.574;2022-12-10T02:35:34;25.90;;;15.33;;
48002;SDS011;33768;48.578;11.574;2022-12-10T02:38:42;24.80;;;15.43;;
48002;SDS011;33768;48.578;11.574;2022-12-10T02:41:50;29.30;;;16.27;;
48002;SDS011;33768;48.578;11.574;2022-12-10T02:44:56;25.33;;;15.73;;
48002;SDS011;33768;48.578;11.574;2022-12-10T02:48:03;25.23;;;15.43;;
48002;SDS011;33768;48.578;11.574;2022-12-10T02:51:16;26.63;;;16.27;;
48002;SDS011;33768;48.578;11.574;2022-12-10T03:04:54;25.73;;;14.30;;
48002;SDS011;33768;48.578;11.574;2022-12-10T03:08:03;26.47;;;15.60;;
48002;SDS011;33768;48.578;11.574;2022-12-10T03:11:22;28.90;;;15.53;;
48002;SDS011;33768;48.578;11.574;2022-12-10T03:14:28;27.17;;;15.40;;
48002;SDS011;33768;48.578;11.574;2022-12-10T03:17:34;27.43;;;15.70;;
48002;SDS011;33768;48.578;11.574;2022-12-10T03:20:42;24.97;;;15.53;;
48002;SDS011;33768;48.578;11.574;2022-12-10T03:23:48;28.70;;;15.27;;
48002;SDS011;33768;48.578;11.574;2022-12-10T03:26:54;25.70;;;15.73;;
48002;SDS011;33768;48.578;11.574;2022-12-10T03:30:01;26.83;;;15.20;;
48002;SDS011;33768;48.578;11.574;2022-12-10T03:33:05;25.07;;;15.53;;
48002;SDS011;33768;48.578;11.574;2022-12-10T03:36:10;26.50;;;15.97;;
48002;SDS011;33768;48.578;11.574;2022-12-10T03:39:15;26.23;;;15.73;;
48002;SDS011;33768;48.578;11.574;2022-12-10T03:42:20;24.50;;;14.90;;
48002;SDS011;33768;48.578;11.574;2022-12-10T03:45:24;24.83;;;14.63;;
48002;SDS011;33768;48.578;11.574;2022-12-10T03:48:28;30.03;;;17.10;;
48002;SDS011;33768;48.578;11.574;2022-12-10T03:51:32;27.13;;;15.37;;
48002;SDS011;33768;48.578;11.574;2022-12-10T03:54:36;26.63;;;16.13;;
48002;SDS011;33768;48.578;11.574;2022-12-10T03:57:40;24.87;;;15.80;;
48002;SDS011;33768;48.578;11.574;2022-12-10T04:00:44;25.43;;;15.77;;
48002;SDS011;33768;48.578;11.574;2022-12-10T04:03:48;26.37;;;15.70;;
48002;SDS011;33768;48.578;11.574;2022-12-10T04:06:52;26.23;;;15.23;;
48002;SDS011;33768;48.578;11.574;2022-12-10T04:09:56;31.43;;;16.13;;
48002;SDS011;33768;48.578;11.574;2022-12-10T04:13:01;26.80;;;15.90;;
48002;SDS011;33768;48.578;11.574;2022-12-10T04:16:24;24.93;;;15.97;;
48002;SDS011;33768;48.578;11.574;2022-12-10T04:19:32;27.80;;;16.40;;
48002;SDS011;33768;48.578;11.574;2022-12-10T04:22:36;27.90;;;15.97;;
48002;SDS011;33768;48.578;11.574;2022-12-10T04:25:59;24.20;;;15.13;;
48002;SDS011;33768;48.578;11.574;2022-12-10T04:29:22;25.50;;;14.87;;
48002;SDS011;33768;48.578;11.574;2022-12-10T04:32:29;25.87;;;15.03;;
48002;SDS011;33768;48.578;11.574;2022-12-10T04:35:33;26.13;;;15.70;;
48002;SDS011;33768;48.578;11.574;2022-12-10T04:38:37;27.10;;;16.30;;
48002;SDS011;33768;48.578;11.574;2022-12-10T04:41:44;25.57;;;15.70;;
48002;SDS011;33768;48.578;11.574;2022-12-10T04:44:50;27.70;;;15.83;;
48002;SDS011;33768;48.578;11.574;2022-12-10T04:47:54;30.20;;;17.03;;
48002;SDS011;33768;48.578;11.574;2022-12-10T04:50:58;27.13;;;15.50;;
48002;SDS011;33768;48.578;11.574;2022-12-10T04:54:02;25.87;;;15.70;;
48002;SDS011;33768;48.578;11.574;2022-12-10T04:57:07;24.67;;;15.70;;
48002;SDS011;33768;48.578;11.574;2022-12-10T05:00:11;26.27;;;15.67;;
48002;SDS011;33768;48.578;11.574;2022-12-10T05:03:16;24.67;;;15.57;;
48002;SDS011;33768;48.578;11.574;2022-12-10T05:06:20;26.33;;;15.80;;
48002;SDS011;33768;48.578;11.574;2022-12-10T05:09:24;25.67;;;15.37;;
48002;SDS011;33768;48.578;11.574;2022-12-10T05:12:28;26.70;;;15.90;;
48002;SDS011;33768;48.578;11.574;2022-12-10T05:15:33;27.60;;;14.87;;
48002;SDS011;33768;48.578;11.574;2022-12-10T05:18:41;26.00;;;16.73;;
48002;SDS011;33768;48.578;11.574;2022-12-10T05:21:45;27.53;;;15.57;;
48002;SDS011;33768;48.578;11.574;2022-12-10T05:25:08;26.27;;;16.17;;
48002;SDS011;33768;48.578;11.574;2022-12-10T05:28:12;25.17;;;15.00;;
48002;SDS011;33768;48.578;11.574;2022-12-10T05:31:18;28.10;;;17.10;;
48002;SDS011;33768;48.578;11.574;2022-12-10T05:34:27;28.63;;;16.20;;
48002;SDS011;33768;48.578;11.574;2022-12-10T05:37:31;28.20;;;15.93;;
48002;SDS011;33768;48.578;11.574;2022-12-10T05:40:36;27.03;;;16.00;;
48002;SDS011;33768;48.578;11.574;2022-12-10T05:43:41;26.23;;;15.10;;
48002;SDS011;33768;48.578;11.574;2022-12-10T05:46:45;27.97;;;16.20;;
48002;SDS011;33768;48.578;11.574;2022-12-10T05:49:50;25.00;;;14.67;;
48002;SDS011;33768;48.578;11.574;2022-12-10T05:52:54;28.77;;;16.13;;
48002;SDS011;33768;48.578;11.574;2022-12-10T05:55:59;27.20;;;15.47;;
48002;SDS011;33768;48.578;11.574;2022-12-10T05:59:08;25.73;;;15.47;;
48002;SDS011;33768;48.578;11.574;2022-12-10T06:02:13;26.50;;;14.97;;
48002;SDS011;33768;48.578;11.574;2022-12-10T06:05:17;26.57;;;15.37;;
48002;SDS011;33768;48.578;11.574;2022-12-10T06:08:22;26.80;;;16.13;;
48002;SDS011;33768;48.578;11.574;2022-12-10T06:11:26;24.50;;;14.97;;
48002;SDS011;33768;48.578;11.574;2022-12-10T06:14:32;28.00;;;15.97;;
48002;SDS011;33768;48.578;11.574;2022-12-10T06:17:36;26.17;;;14.97;;
48002;SDS011;33768;48.578;11.574;2022-12-10T06:20:40;27.70;;;16.37;;
48002;SDS011;33768;48.578;11.574;2022-12-10T06:23:44;27.77;;;16.03;;
48002;SDS011;33768;48.578;11.574;2022-12-10T06:26:48;25.43;;;15.90;;
48002;SDS011;33768;48.578;11.574;2022-12-10T06:29:53;27.20;;;15.67;;
48002;SDS011;33768;48.578;11.574;2022-12-10T06:32:57;29.40;;;16.33;;
48002;SDS011;33768;48.578;11.574;2022-12-10T06:36:04;28.17;;;15.90;;
48002;SDS011;33768;48.578;11.574;2022-12-10T06:39:12;24.73;;;15.43;;
48002;SDS011;33768;48.578;11.574;2022-12-10T06:42:16;30.87;;;17.20;;
48002;SDS011;33768;48.578;11.574;2022-12-10T06:45:20;29.57;;;17.07;;
48002;SDS011;33768;48.578;11.574;2022-12-10T06:48:24;28.63;;;17.03;;
48002;SDS011;33768;48.578;11.574;2022-12-10T06:51:29;29.83;;;17.10;;
48002;SDS011;33768;48.578;11.574;2022-12-10T06:54:33;26.47;;;15.90;;
48002;SDS011;33768;48.578;11.574;2022-12-10T06:57:37;27.30;;;16.40;;
48002;SDS011;33768;48.578;11.574;2022-12-10T07:00:42;30.53;;;16.73;;
48002;SDS011;33768;48.578;11.574;2022-12-10T07:03:50;32.60;;;16.40;;
48002;SDS011;33768;48.578;11.574;2022-12-10T07:06:55;25.53;;;16.03;;
48002;SDS011;33768;48.578;11.574;2022-12-10T07:09:59;29.33;;;15.60;;
48002;SDS011;33768;48.578;11.574;2022-12-10T07:13:04;25.50;;;16.17;;
48002;SDS011;33768;48.578;11.574;2022-12-10T07:16:27;26.27;;;16.73;;
48002;SDS011;33768;48.578;11.574;2022-12-10T07:19:32;28.67;;;16.23;;
48002;SDS011;33768;48.578;11.574;2022-12-10T07:22:37;30.23;;;16.70;;
48002;SDS011;33768;48.578;11.574;2022-12-10T07:25:41;26.23;;;16.47;;
48002;SDS011;33768;48.578;11.574;2022-12-10T07:28:45;26.70;;;15.67;;
48002;SDS011;33768;48.578;11.574;2022-12-10T07:31:49;27.90;;;16.60;;
48002;SDS011;33768;48.578;11.574;2022-12-10T07:34:54;29.13;;;17.30;;
48002;SDS011;33768;48.578;11.574;2022-12-10T07:37:58;29.83;;;17.83;;
48002;SDS011;33768;48.578;11.574;2022-12-10T07:41:02;27.37;;;16.27;;
48002;SDS011;33768;48.578;11.574;2022-12-10T07:44:09;30.17;;;17.13;;
48002;SDS011;33768;48.578;11.574;2022-12-10T07:47:16;31.50;;;17.77;;
48002;SDS011;33768;48.578;11.574;2022-12-10T07:50:20;29.93;;;17.00;;
48002;SDS011;33768;48.578;11.574;2022-12-10T07:53:24;29.27;;;16.87;;
48002;SDS011;33768;48.578;11.574;2022-12-10T07:56:28;28.80;;;17.70;;
48002;SDS011;33768;48.578;11.574;2022-12-10T07:59:32;32.03;;;19.03;;
48002;SDS011;33768;48.578;11.574;2022-12-10T08:02:37;25.97;;;16.43;;
48002;SDS011;33768;48.578;11.574;2022-12-10T08:05:41;29.57;;;17.00;;
48002;SDS011;33768;48.578;11.574;2022-12-10T08:08:45;30.83;;;17.37;;
48002;SDS011;33768;48.578;11.574;2022-12-10T08:11:49;32.17;;;16.97;;
48002;SDS011;33768;48.578;11.574;2022-12-10T08:14:53;32.33;;;17.53;;
48002;SDS011;33768;48.578;11.574;2022-12-10T08:17:57;32.90;;;18.37;;
48002;SDS011;33768;48.578;11.574;2022-12-10T08:21:05;29.53;;;18.13;;
48002;SDS011;33768;48.578;11.574;2022-12-10T08:24:10;30.57;;;18.30;;
48002;SDS011;33768;48.578;11.574;2022-12-10T08:27:14;31.07;;;18.80;;
48002;SDS011;33768;48.578;11.574;2022-12-10T08:30:18;32.87;;;19.13;;
48002;SDS011;33768;48.578;11.574;2022-12-10T08:33:23;33.50;;;18.77;;
48002;SDS011;33768;48.578;11.574;2022-12-10T08:36:27;37.17;;;18.97;;
48002;SDS011;33768;48.578;11.574;2022-12-10T08:39:31;32.10;;;18.43;;
48002;SDS011;33768;48.578;11.574;2022-12-10T08:42:35;31.13;;;18.63;;
48002;SDS011;33768;48.578;11.574;2022-12-10T08:45:39;31.53;;;18.00;;
48002;SDS011;33768;48.578;11.574;2022-12-10T08:48:43;33.70;;;19.53;;
48002;SDS011;33768;48.578;11.574;2022-12-10T08:51:48;38.03;;;18.47;;
48002;SDS011;33768;48.578;11.574;2022-12-10T08:54:52;32.83;;;19.10;;
48002;SDS011;33768;48.578;11.574;2022-12-10T08:57:56;31.50;;;19.07;;
48002;SDS011;33768;48.578;11.574;2022-12-10T09:01:05;32.87;;;19.17;;
48002;SDS011;33768;48.578;11.574;2022-12-10T09:04:10;37.83;;;19.40;;
48002;SDS011;33768;48.578;11.574;2022-12-10T09:07:14;37.50;;;20.27;;
48002;SDS011;33768;48.578;11.574;2022-12-10T09:10:18;34.77;;;20.40;;
48002;SDS011;33768;48.578;11.574;2022-12-10T09:13:22;31.17;;;18.73;;
48002;SDS011;33768;48.578;11.574;2022-12-10T09:16:30;32.77;;;19.10;;
48002;SDS011;33768;48.578;11.574;2022-12-10T09:19:36;35.37;;;19.60;;
48002;SDS011;33768;48.578;11.574;2022-12-10T09:22:40;35.47;;;19.97;;
48002;SDS011;33768;48.578;11.574;2022-12-10T09:25:44;32.63;;;19.73;;
48002;SDS011;33768;48.578;11.574;2022-12-10T09:28:49;34.80;;;19.83;;
48002;SDS011;33768;48.578;11.574;2022-12-10T09:31:54;34.03;;;18.83;;
48002;SDS011;33768;48.578;11.574;2022-12-10T09:34:58;37.80;;;20.37;;
48002;SDS011;33768;48.578;11.574;2022-12-10T09:38:02;39.00;;;20.87;;
48002;SDS011;33768;48.578;11.574;2022-12-10T09:51:29;37.03;;;19.90;;
48002;SDS011;33768;48.578;11.574;2022-12-10T09:54:41;39.40;;;21.30;;
48002;SDS011;33768;48.578;11.574;2022-12-10T09:57:49;37.13;;;19.70;;
48002;SDS011;33768;48.578;11.574;2022-12-10T10:00:57;38.27;;;20.17;;
48002;SDS011;33768;48.578;11.574;2022-12-10T10:04:04;36.97;;;20.83;;
48002;SDS011;33768;48.578;11.574;2022-12-10T10:07:10;38.87;;;20.87;;
48002;SDS011;33768;48.578;11.574;2022-12-10T10:13:48;37.57;;;21.03;;
48002;SDS011;33768;48.578;11.574;2022-12-10T10:17:03;38.93;;;21.40;;
48002;SDS011;33768;48.578;11.574;2022-12-10T10:20:19;41.07;;;20.77;;
48002;SDS011;33768;48.578;11.574;2022-12-10T10:23:24;38.63;;;20.70;;
48002;SDS011;33768;48.578;11.574;2022-12-10T10:26:29;142.17;;;51.23;;
48002;SDS011;33768;48.578;11.574;2022-12-10T10:29:33;39.40;;;22.80;;
48002;SDS011;33768;48.578;11.574;2022-12-10T10:35:43;38.50;;;21.57;;
48002;SDS011;33768;48.578;11.574;2022-12-10T10:38:56;46.20;;;28.30;;
48002;SDS011;33768;48.578;11.574;2022-12-10T10:42:07;39.73;;;22.90;;
48002;SDS011;33768;48.578;11.574;2022-12-10T10:45:33;36.70;;;21.40;;
48002;SDS011;33768;48.578;11.574;2022-12-10T10:48:40;40.67;;;21.40;;
48002;SDS011;33768;48.578;11.574;2022-12-10T10:51:45;38.20;;;20.90;;
48002;SDS011;33768;48.578;11.574;2022-12-10T10:54:49;39.03;;;20.93;;
48002;SDS011;33768;48.578;11.574;2022-12-10T10:57:53;40.87;;;21.67;;
48002;SDS011;33768;48.578;11.574;2022-12-10T11:00:59;38.33;;;21.93;;
48002;SDS011;33768;48.578;11.574;2022-12-10T11:04:09;40.17;;;21.47;;
48002;SDS011;33768;48.578;11.574;2022-12-10T11:07:19;41.47;;;22.30;;
48002;SDS011;33768;48.578;11.574;2022-12-10T11:10:24;43.13;;;22.80;;
48002;SDS011;33768;48.578;11.574;2022-12-10T11:13:31;43.97;;;22.87;;
48002;SDS011;33768;48.578;11.574;2022-12-10T11:16:39;42.13;;;23.03;;
48002;SDS011;33768;48.578;11.574;2022-12-10T11:19:52;38.40;;;21.40;;
48002;SDS011;33768;48.578;11.574;2022-12-10T11:23:10;41.17;;;21.67;;
48002;SDS011;33768;48.578;11.574;2022-12-10T11:30:08;42.80;;;23.10;;
48002;SDS011;33768;48.578;11.574;2022-12-10T11:36:25;45.00;;;23.87;;
48002;SDS011;33768;48.578;11.574;2022-12-10T12:00:59;41.83;;;22.10;;
48002;SDS011;33768;48.578;11.574;2022-12-10T12:04:15;41.57;;;22.07;;
48002;SDS011;33768;48.578;11.574;2022-12-10T12:10:57;45.00;;;23.47;;
48002;SDS011;33768;48.578;11.574;2022-12-10T12:14:24;40.77;;;22.93;;
48002;SDS011;33768;48.578;11.574;2022-12-10T12:17:37;39.20;;;21.80;;
48002;SDS011;33768;48.578;11.574;2022-12-10T12:20:48;45.00;;;26.20;;
48002;SDS011;33768;48.578;11.574;2022-12-10T12:24:08;40.87;;;21.70;;
48002;SDS011;33768;48.578;11.574;2022-12-10T12:30:37;41.97;;;24.07;;
48002;SDS011;33768;48.578;11.574;2022-12-10T12:36:53;44.97;;;24.43;;
48002;SDS011;33768;48.578;11.574;2022-12-10T12:43:12;34.00;;;20.60;;
48002;SDS011;33768;48.578;11.574;2022-12-10T12:46:32;34.60;;;19.17;;
48002;SDS011;33768;48.578;11.574;2022-12-10T12:49:41;39.50;;;22.77;;
48002;SDS011;33768;48.578;11.574;2022-12-10T12:52:55;35.13;;;20.13;;
48002;SDS011;33768;48.578;11.574;2022-12-10T12:56:04;38.27;;;21.07;;
48002;SDS011;33768;48.578;11.574;2022-12-10T13:09:26;38.20;;;20.37;;
48002;SDS011;33768;48.578;11.574;2022-12-10T13:15:44;43.10;;;23.73;;
48002;SDS011;33768;48.578;11.574;2022-12-10T13:18:48;36.93;;;20.27;;
48002;SDS011;33768;48.578;11.574;2022-12-10T13:28:28;43.00;;;25.93;;
48002;SDS011;33768;48.578;11.574;2022-12-10T13:31:35;33.87;;;21.40;;
48002;SDS011;33768;48.578;11.574;2022-12-10T13:34:41;37.30;;;20.57;;
48002;SDS011;33768;48.578;11.574;2022-12-10T13:40:57;39.83;;;21.30;;
48002;SDS011;33768;48.578;11.574;2022-12-10T13:44:26;42.07;;;24.53;;
48002;SDS011;33768;48.578;11.574;2022-12-10T13:47:51;46.07;;;25.23;;
48002;SDS011;33768;48.578;11.574;2022-12-10T13:51:04;37.33;;;21.73;;
48002;SDS011;33768;48.578;11.574;2022-12-10T13:54:17;35.43;;;20.47;;
48002;SDS011;33768;48.578;11.574;2022-12-10T13:57:53;34.70;;;20.10;;
48002;SDS011;33768;48.578;11.574;2022-12-10T14:07:53;41.70;;;20.73;;
48002;SDS011;33768;48.578;11.574;2022-12-10T14:11:04;38.00;;;21.57;;
48002;SDS011;33768;48.578;11.574;2022-12-10T14:14:11;40.20;;;23.03;;
48002;SDS011;33768;48.578;11.574;2022-12-10T14:17:20;35.90;;;21.30;;
48002;SDS011;33768;48.578;11.574;2022-12-10T14:20:29;40.37;;;20.97;;
48002;SDS011;33768;48.578;11.574;2022-12-10T14:23:36;38.70;;;22.03;;
48002;SDS011;33768;48.578;11.574;2022-12-10T14:26:55;41.53;;;23.40;;
48002;SDS011;33768;48.578;11.574;2022-12-10T14:30:06;38.80;;;21.63;;
48002;SDS011;33768;48.578;11.574;2022-12-10T14:33:22;41.17;;;22.23;;
48002;SDS011;33768;48.578;11.574;2022-12-10T14:36:29;40.70;;;22.37;;
48002;SDS011;33768;48.578;11.574;2022-12-10T14:39:37;40.23;;;22.30;;
48002;SDS011;33768;48.578;11.574;2022-12-10T14:42:42;39.17;;;22.23;;
48002;SDS011;33768;48.578;11.574;2022-12-10T14:49:00;37.50;;;20.63;;
48002;SDS011;33768;48.578;11.574;2022-12-10T14:52:08;38.93;;;21.90;;
48002;SDS011;33768;48.578;11.574;2022-12-10T14:55:21;41.20;;;22.87;;
48002;SDS011;33768;48.578;11.574;2022-12-10T14:58:30;41.13;;;22.57;;
48002;SDS011;33768;48.578;11.574;2022-12-10T15:01:37;44.97;;;25.13;;
48002;SDS011;33768;48.578;11.574;2022-12-10T15:04:45;42.73;;;23.03;;
48002;SDS011;33768;48.578;11.574;2022-12-10T15:07:56;45.33;;;24.27;;
48002;SDS011;33768;48.578;11.574;2022-12-10T15:11:02;47.23;;;26.33;;
48002;SDS011;33768;48.578;11.574;2022-12-10T15:14:10;40.03;;;23.93;;
48002;SDS011;33768;48.578;11.574;2022-12-10T15:17:32;41.30;;;23.77;;
48002;SDS011;33768;48.578;11.574;2022-12-10T15:27:23;43.93;;;24.07;;
48002;SDS011;33768;48.578;11.574;2022-12-10T15:30:37;57.27;;;28.83;;
48002;SDS011;33768;48.578;11.574;2022-12-10T15:33:47;57.40;;;30.70;;
48002;SDS011;33768;48.578;11.574;2022-12-10T15:37:00;46.20;;;25.43;;
48002;SDS011;33768;48.578;11.574;2022-12-10T15:40:07;42.27;;;22.00;;
48002;SDS011;33768;48.578;11.574;2022-12-10T15:43:28;45.43;;;25.27;;
48002;SDS011;33768;48.578;11.574;2022-12-10T15:46:33;47.30;;;25.27;;
48002;SDS011;33768;48.578;11.574;2022-12-10T15:49:52;38.97;;;21.43;;
48002;SDS011;33768;48.578;11.574;2022-12-10T15:52:58;47.90;;;24.37;;
48002;SDS011;33768;48.578;11.574;2022-12-10T15:56:02;41.93;;;23.80;;
48002;SDS011;33768;48.578;11.574;2022-12-10T15:59:08;40.57;;;22.90;;
48002;SDS011;33768;48.578;11.574;2022-12-10T16:05:32;40.00;;;22.57;;
48002;SDS011;33768;48.578;11.574;2022-12-10T16:08:38;38.13;;;23.50;;
48002;SDS011;33768;48.578;11.574;2022-12-10T16:11:42;38.80;;;23.00;;
48002;SDS011;33768;48.578;11.574;2022-12-10T16:14:48;41.10;;;22.83;;
48002;SDS011;33768;48.578;11.574;2022-12-10T16:17:54;42.40;;;22.30;;
48002;SDS011;33768;48.578;11.574;2022-12-10T16:20:59;37.77;;;20.80;;
48002;SDS011;33768;48.578;11.574;2022-12-10T16:24:03;36.77;;;21.50;;
48002;SDS011;33768;48.578;11.574;2022-12-10T16:27:12;38.97;;;21.47;;
48002;SDS011;33768;48.578;11.574;2022-12-10T16:33:26;34.43;;;19.00;;
48002;SDS011;33768;48.578;11.574;2022-12-10T16:36:31;29.03;;;16.83;;
48002;SDS011;33768;48.578;11.574;2022-12-10T16:39:36;38.20;;;23.00;;
48002;SDS011;33768;48.578;11.574;2022-12-10T16:42:41;37.20;;;20.07;;
48002;SDS011;33768;48.578;11.574;2022-12-10T16:45:45;32.50;;;18.33;;
48002;SDS011;33768;48.578;11.574;2022-12-10T16:48:50;28.83;;;17.60;;
48002;SDS011;33768;48.578;11.574;2022-12-10T16:51:54;30.23;;;17.93;;
48002;SDS011;33768;48.578;11.574;2022-12-10T16:54:58;63.70;;;36.53;;
48002;SDS011;33768;48.578;11.574;2022-12-10T16:58:02;57.73;;;34.00;;
48002;SDS011;33768;48.578;11.574;2022-12-10T17:01:20;44.23;;;26.80;;
48002;SDS011;33768;48.578;11.574;2022-12-10T17:04:26;45.63;;;25.87;;
48002;SDS011;33768;48.578;11.574;2022-12-10T17:07:31;39.47;;;22.83;;
48002;SDS011;33768;48.578;11.574;2022-12-10T17:10:35;34.23;;;21.33;;
48002;SDS011;33768;48.578;11.574;2022-12-10T17:13:58;34.37;;;19.77;;
48002;SDS011;33768;48.578;11.574;2022-12-10T17:17:03;30.40;;;18.90;;
48002;SDS011;33768;48.578;11.574;2022-12-10T17:20:15;33.73;;;20.20;;
48002;SDS011;33768;48.578;11.574;2022-12-10T17:23:20;33.97;;;21.47;;
48002;SDS011;33768;48.578;11.574;2022-12-10T17:29:31;32.63;;;19.03;;
48002;SDS011;33768;48.578;11.574;2022-12-10T17:32:39;34.00;;;21.33;;
48002;SDS011;33768;48.578;11.574;2022-12-10T17:35:44;33.33;;;21.53;;
48002;SDS011;33768;48.578;11.574;2022-12-10T17:38:50;35.13;;;21.83;;
48002;SDS011;33768;48.578;11.574;2022-12-10T17:41:54;36.30;;;20.37;;
48002;SDS011;33768;48.578;11.574;2022-12-10T17:44:59;30.83;;;18.80;;
48002;SDS011;33768;48.578;11.574;2022-12-10T17:48:05;30.90;;;18.50;;
48002;SDS011;33768;48.578;11.574;2022-12-10T17:51:11;31.43;;;17.60;;
48002;SDS011;33768;48.578;11.574;2022-12-10T17:54:16;32.63;;;19.17;;
48002;SDS011;33768;48.578;11.574;2022-12-10T17:57:21;30.20;;;18.27;;
48002;SDS011;33768;48.578;11.574;2022-12-10T18:00:29;33.83;;;20.13;;
48002;SDS011;33768;48.578;11.574;2022-12-10T18:03:37;35.43;;;20.30;;
48002;SDS011;33768;48.578;11.574;2022-12-10T18:06:42;32.97;;;20.03;;
48002;SDS011;33768;48.578;11.574;2022-12-10T18:09:46;50.80;;;26.57;;
48002;SDS011;33768;48.578;11.574;2022-12-10T18:12:50;40.00;;;24.00;;
48002;SDS011;33768;48.578;11.574;2022-12-10T18:15:57;38.53;;;21.60;;
48002;SDS011;33768;48.578;11.574;2022-12-10T18:19:02;40.37;;;23.20;;
48002;SDS011;33768;48.578;11.574;2022-12-10T18:22:10;38.73;;;23.03;;
48002;SDS011;33768;48.578;11.574;2022-12-10T18:25:15;43.23;;;23.63;;
48002;SDS011;33768;48.578;11.574;2022-12-10T18:31:26;48.83;;;26.57;;
48002;SDS011;33768;48.578;11.574;2022-12-10T18:34:33;47.83;;;27.13;;
48002;SDS011;33768;48.578;11.574;2022-12-10T18:37:37;45.23;;;25.67;;
48002;SDS011;33768;48.578;11.574;2022-12-10T18:40:42;35.60;;;21.37;;
48002;SDS011;33768;48.578;11.574;2022-12-10T18:43:46;40.10;;;22.17;;
48002;SDS011;33768;48.578;11.574;2022-12-10T18:46:51;36.07;;;21.47;;
48002;SDS011;33768;48.578;11.574;2022-12-10T18:49:57;38.40;;;22.13;;
48002;SDS011;33768;48.578;11.574;2022-12-10T18:53:01;38.27;;;21.50;;
48002;SDS011;33768;48.578;11.574;2022-12-10T18:56:05;41.73;;;23.07;;
48002;SDS011;33768;48.578;11.574;2022-12-10T18:59:17;39.20;;;21.83;;
48002;SDS011;33768;48.578;11.574;2022-12-10T19:02:22;37.13;;;22.33;;
48002;SDS011;33768;48.578;11.574;2022-12-10T19:05:26;39.07;;;22.67;;
48002;SDS011;33768;48.578;11.574;2022-12-10T19:08:31;41.17;;;21.73;;
48002;SDS011;33768;48.578;11.574;2022-12-10T19:11:35;40.23;;;23.30;;
48002;SDS011;33768;48.578;11.574;2022-12-10T19:14:40;43.50;;;22.53;;
48002;SDS011;33768;48.578;11.574;2022-12-10T19:17:44;42.53;;;22.63;;
48002;SDS011;33768;48.578;11.574;2022-12-10T19:20:49;39.47;;;22.90;;
48002;SDS011;33768;48.578;11.574;2022-12-10T19:23:53;45.70;;;23.30;;
48002;SDS011;33768;48.578;11.574;2022-12-10T19:26:57;41.53;;;22.83;;
48002;SDS011;33768;48.578;11.574;2022-12-10T19:30:01;39.97;;;23.30;;
48002;SDS011;33768;48.578;11.574;2022-12-10T19:33:06;44.37;;;24.30;;
48002;SDS011;33768;48.578;11.574;2022-12-10T19:36:18;45.03;;;23.53;;
48002;SDS011;33768;48.578;11.574;2022-12-10T19:39:24;45.40;;;23.50;;
48002;SDS011;33768;48.578;11.574;2022-12-10T19:42:29;46.83;;;24.77;;
48002;SDS011;33768;48.578;11.574;2022-12-10T19:45:34;44.83;;;23.43;;
48002;SDS011;33768;48.578;11.574;2022-12-10T19:48:38;43.43;;;23.83;;
48002;SDS011;33768;48.578;11.574;2022-12-10T19:51:42;41.00;;;22.20;;
48002;SDS011;33768;48.578;11.574;2022-12-10T19:54:46;41.63;;;22.80;;
48002;SDS011;33768;48.578;11.574;2022-12-10T19:57:51;42.07;;;23.37;;
48002;SDS011;33768;48.578;11.574;2022-12-10T20:00:55;38.23;;;22.77;;
48002;SDS011;33768;48.578;11.574;2022-12-10T20:03:59;40.70;;;22.77;;
48002;SDS011;33768;48.578;11.574;2022-12-10T20:07:03;46.70;;;23.73;;
48002;SDS011;33768;48.578;11.574;2022-12-10T20:10:10;44.30;;;23.60;;